Archival Weather

Snohomish County (Paine Fld)

Everett, Washington (KPAE)

Report from: Thursday, November 2, 2023 5:53 PM PDT
Current time: Monday, June 17, 2024 1:29 AM PDT

Current weather – Weather history – Daily summaries
Weather forecast

Temperature13.9°C (57.0°F)
Dew point10.0°C (50.0°F)
Winds 9 kts (4.6 m/s, 10.4 mph) South-Southwest (200°)
Visibility10 mi. (16.1 km)
Clouds Ceiling: Overcast 1,900 ft. (579 m)
Altimeter30.00 in.Hg (1016 mB)
Relative humidity77 %
Density altitude-46 ft. (-14 m)
Sea-level pressure101.6 kPa (1016 mB, 30.00 in.Hg)
Remarks Automated weather observing station with precipitation discriminator
Flight conditions Marginal Visual Meteorological Conditions
Raw dataKPAE 030053Z 20009KT 10SM OVC019 14/10 A3000 RMK AO2 SLP159 T01390100
An error has occurred. This application may no longer respond until reloaded. Reload 🗙